sensor_id;sensor_type;location;lat;lon;timestamp;pressure;altitude;pressure_sealevel;temperature;humidity
48862;BME280;34681;49.188;-0.374;2022-09-20T00:01:39;102270.28;;;15.35;61.95
48862;BME280;34681;49.188;-0.374;2022-09-20T00:04:05;102265.91;;;15.23;62.16
48862;BME280;34681;49.188;-0.374;2022-09-20T00:06:31;102265.63;;;15.26;62.37
48862;BME280;34681;49.188;-0.374;2022-09-20T00:08:57;102268.84;;;15.31;61.80
48862;BME280;34681;49.188;-0.374;2022-09-20T00:11:28;102260.97;;;15.26;62.03
48862;BME280;34681;49.188;-0.374;2022-09-20T00:13:56;102265.63;;;15.26;62.03
48862;BME280;34681;49.188;-0.374;2022-09-20T00:16:25;102266.78;;;15.23;62.17
48862;BME280;34681;49.188;-0.374;2022-09-20T00:18:52;102270.81;;;15.19;62.06
48862;BME280;34681;49.188;-0.374;2022-09-20T00:21:20;102264.59;;;15.17;62.22
48862;BME280;34681;49.188;-0.374;2022-09-20T00:23:46;102274.59;;;15.18;62.02
48862;BME280;34681;49.188;-0.374;2022-09-20T00:26:11;102275.63;;;15.17;62.12
48862;BME280;34681;49.188;-0.374;2022-09-20T00:28:39;102270.09;;;15.17;61.97
48862;BME280;34681;49.188;-0.374;2022-09-20T00:31:04;102270.50;;;15.12;61.89
48862;BME280;34681;49.188;-0.374;2022-09-20T00:33:30;102277.47;;;15.07;62.18
48862;BME280;34681;49.188;-0.374;2022-09-20T00:36:15;102271.19;;;15.05;62.27
48862;BME280;34681;49.188;-0.374;2022-09-20T00:38:41;102275.69;;;15.06;62.15
48862;BME280;34681;49.188;-0.374;2022-09-20T00:41:06;102270.34;;;15.04;62.46
48862;BME280;34681;49.188;-0.374;2022-09-20T00:46:05;102273.22;;;15.03;62.24
48862;BME280;34681;49.188;-0.374;2022-09-20T00:48:39;102280.91;;;14.99;62.40
48862;BME280;34681;49.188;-0.374;2022-09-20T00:51:10;102274.38;;;15.00;62.35
48862;BME280;34681;49.188;-0.374;2022-09-20T00:53:42;102271.63;;;15.00;62.15
48862;BME280;34681;49.188;-0.374;2022-09-20T00:56:13;102264.63;;;14.96;62.28
48862;BME280;34681;49.188;-0.374;2022-09-20T00:58:44;102272.03;;;14.96;62.12
48862;BME280;34681;49.188;-0.374;2022-09-20T01:01:11;102274.22;;;14.92;62.15
48862;BME280;34681;49.188;-0.374;2022-09-20T01:03:38;102272.47;;;14.91;62.05
48862;BME280;34681;49.188;-0.374;2022-09-20T01:06:09;102275.38;;;14.89;62.32
48862;BME280;34681;49.188;-0.374;2022-09-20T01:08:36;102273.75;;;14.87;62.10
48862;BME280;34681;49.188;-0.374;2022-09-20T01:11:03;102278.53;;;14.85;62.04
48862;BME280;34681;49.188;-0.374;2022-09-20T01:13:28;102270.41;;;14.83;62.21
48862;BME280;34681;49.188;-0.374;2022-09-20T01:15:55;102274.03;;;14.84;62.23
48862;BME280;34681;49.188;-0.374;2022-09-20T01:18:23;102272.44;;;14.81;62.35
48862;BME280;34681;49.188;-0.374;2022-09-20T01:20:49;102280.56;;;14.83;62.06
48862;BME280;34681;49.188;-0.374;2022-09-20T01:23:33;102271.66;;;14.79;61.99
48862;BME280;34681;49.188;-0.374;2022-09-20T01:28:41;102272.34;;;14.72;62.13
48862;BME280;34681;49.188;-0.374;2022-09-20T01:31:22;102266.97;;;14.70;61.93
48862;BME280;34681;49.188;-0.374;2022-09-20T01:36:33;102270.41;;;14.63;62.30
48862;BME280;34681;49.188;-0.374;2022-09-20T01:39:10;102262.44;;;14.59;62.43
48862;BME280;34681;49.188;-0.374;2022-09-20T01:41:56;102264.31;;;14.59;62.11
48862;BME280;34681;49.188;-0.374;2022-09-20T01:44:54;102269.22;;;14.55;62.18
48862;BME280;34681;49.188;-0.374;2022-09-20T01:56:04;102274.91;;;14.43;62.55
48862;BME280;34681;49.188;-0.374;2022-09-20T02:07:24;102272.56;;;14.38;62.54
48862;BME280;34681;49.188;-0.374;2022-09-20T02:12:51;102262.56;;;14.37;62.39
48862;BME280;34681;49.188;-0.374;2022-09-20T02:15:38;102265.44;;;14.36;62.23
48862;BME280;34681;49.188;-0.374;2022-09-20T02:21:34;102259.59;;;14.29;62.40
48862;BME280;34681;49.188;-0.374;2022-09-20T02:29:39;102258.88;;;14.27;62.42
48862;BME280;34681;49.188;-0.374;2022-09-20T02:37:44;102252.75;;;14.23;62.05
48862;BME280;34681;49.188;-0.374;2022-09-20T02:46:17;102246.28;;;14.13;62.17
48862;BME280;34681;49.188;-0.374;2022-09-20T02:51:42;102248.44;;;14.10;62.60
48862;BME280;34681;49.188;-0.374;2022-09-20T02:54:21;102252.06;;;14.10;62.23
48862;BME280;34681;49.188;-0.374;2022-09-20T02:57:04;102249.03;;;14.13;62.07
48862;BME280;34681;49.188;-0.374;2022-09-20T02:59:52;102246.72;;;14.09;62.15
48862;BME280;34681;49.188;-0.374;2022-09-20T03:02:29;102243.34;;;14.05;62.49
48862;BME280;34681;49.188;-0.374;2022-09-20T03:05:18;102245.34;;;14.03;62.27
48862;BME280;34681;49.188;-0.374;2022-09-20T03:10:50;102239.50;;;13.96;62.47
48862;BME280;34681;49.188;-0.374;2022-09-20T03:22:15;102234.28;;;13.93;62.47
48862;BME280;34681;49.188;-0.374;2022-09-20T03:24:59;102231.03;;;13.88;62.23
48862;BME280;34681;49.188;-0.374;2022-09-20T03:33:17;102231.91;;;13.89;62.65
48862;BME280;34681;49.188;-0.374;2022-09-20T03:41:30;102237.53;;;13.87;62.63
48862;BME280;34681;49.188;-0.374;2022-09-20T03:46:46;102244.75;;;13.99;62.46
48862;BME280;34681;49.188;-0.374;2022-09-20T04:00:21;102253.81;;;14.11;62.89
48862;BME280;34681;49.188;-0.374;2022-09-20T04:11:42;102243.06;;;14.29;62.41
48862;BME280;34681;49.188;-0.374;2022-09-20T04:14:32;102242.81;;;14.32;62.31
48862;BME280;34681;49.188;-0.374;2022-09-20T04:17:24;102238.91;;;14.34;62.31
48862;BME280;34681;49.188;-0.374;2022-09-20T04:23:14;102240.28;;;14.40;62.41
48862;BME280;34681;49.188;-0.374;2022-09-20T04:25:44;102238.00;;;14.45;62.39
48862;BME280;34681;49.188;-0.374;2022-09-20T04:28:27;102239.34;;;14.51;62.20
48862;BME280;34681;49.188;-0.374;2022-09-20T04:31:05;102233.53;;;14.54;61.96
48862;BME280;34681;49.188;-0.374;2022-09-20T04:33:39;102233.41;;;14.55;62.20
48862;BME280;34681;49.188;-0.374;2022-09-20T04:39:02;102227.78;;;14.57;62.15
48862;BME280;34681;49.188;-0.374;2022-09-20T05:17:37;102252.19;;;14.71;62.18
48862;BME280;34681;49.188;-0.374;2022-09-20T05:25:40;102245.56;;;14.74;62.05
48862;BME280;34681;49.188;-0.374;2022-09-20T05:28:15;102247.56;;;14.72;62.27
48862;BME280;34681;49.188;-0.374;2022-09-20T05:30:48;102247.44;;;14.73;62.20
48862;BME280;34681;49.188;-0.374;2022-09-20T05:33:25;102252.66;;;14.76;62.13
48862;BME280;34681;49.188;-0.374;2022-09-20T05:36:13;102247.00;;;14.78;62.11
48862;BME280;34681;49.188;-0.374;2022-09-20T05:38:47;102248.91;;;14.77;62.38
48862;BME280;34681;49.188;-0.374;2022-09-20T05:46:46;102249.47;;;14.81;62.18
48862;BME280;34681;49.188;-0.374;2022-09-20T06:00:23;102249.56;;;14.91;62.27
48862;BME280;34681;49.188;-0.374;2022-09-20T06:03:21;102255.78;;;14.93;62.19
48862;BME280;34681;49.188;-0.374;2022-09-20T06:19:41;102270.13;;;14.86;61.73
48862;BME280;34681;49.188;-0.374;2022-09-20T06:22:22;102266.63;;;14.84;61.69
48862;BME280;34681;49.188;-0.374;2022-09-20T06:27:45;102263.34;;;14.91;61.65
48862;BME280;34681;49.188;-0.374;2022-09-20T06:30:17;102271.59;;;14.91;61.55
48862;BME280;34681;49.188;-0.374;2022-09-20T06:32:56;102262.03;;;14.95;61.68
48862;BME280;34681;49.188;-0.374;2022-09-20T06:35:25;102265.50;;;14.97;61.51
48862;BME280;34681;49.188;-0.374;2022-09-20T06:38:16;102266.25;;;14.99;61.54
48862;BME280;34681;49.188;-0.374;2022-09-20T06:41:08;102277.16;;;15.00;61.73
48862;BME280;34681;49.188;-0.374;2022-09-20T06:43:56;102271.34;;;15.03;61.61
48862;BME280;34681;49.188;-0.374;2022-09-20T06:46:30;102277.59;;;15.05;61.55
48862;BME280;34681;49.188;-0.374;2022-09-20T06:48:56;102270.78;;;15.09;61.74
48862;BME280;34681;49.188;-0.374;2022-09-20T06:51:24;102281.38;;;15.14;61.75
48862;BME280;34681;49.188;-0.374;2022-09-20T06:53:51;102281.13;;;15.17;61.90
48862;BME280;34681;49.188;-0.374;2022-09-20T06:56:23;102279.09;;;15.19;61.79
48862;BME280;34681;49.188;-0.374;2022-09-20T06:58:51;102280.13;;;15.18;62.08
48862;BME280;34681;49.188;-0.374;2022-09-20T07:01:17;102285.81;;;15.26;62.16
48862;BME280;34681;49.188;-0.374;2022-09-20T07:03:43;102285.41;;;15.31;62.07
48862;BME280;34681;49.188;-0.374;2022-09-20T07:06:09;102287.84;;;15.34;62.24
48862;BME280;34681;49.188;-0.374;2022-09-20T07:08:34;102287.56;;;15.37;62.37
48862;BME280;34681;49.188;-0.374;2022-09-20T07:11:09;102287.47;;;15.48;62.06
48862;BME280;34681;49.188;-0.374;2022-09-20T07:13:36;102290.94;;;15.40;62.08
48862;BME280;34681;49.188;-0.374;2022-09-20T07:16:03;102287.16;;;15.41;62.00
48862;BME280;34681;49.188;-0.374;2022-09-20T07:18:30;102284.63;;;15.29;62.46
48862;BME280;34681;49.188;-0.374;2022-09-20T07:20:56;102279.13;;;15.29;62.53
48862;BME280;34681;49.188;-0.374;2022-09-20T07:23:24;102281.44;;;15.24;62.45
48862;BME280;34681;49.188;-0.374;2022-09-20T07:25:49;102284.63;;;15.19;62.52
48862;BME280;34681;49.188;-0.374;2022-09-20T07:28:16;102296.09;;;15.24;62.51
48862;BME280;34681;49.188;-0.374;2022-09-20T07:30:44;102290.06;;;15.00;62.95
48862;BME280;34681;49.188;-0.374;2022-09-20T07:33:09;102287.66;;;14.85;64.10
48862;BME280;34681;49.188;-0.374;2022-09-20T07:35:36;102293.00;;;15.08;63.94
48862;BME280;34681;49.188;-0.374;2022-09-20T07:38:01;102297.84;;;15.25;63.04
48862;BME280;34681;49.188;-0.374;2022-09-20T07:40:27;102297.13;;;15.23;63.36
48862;BME280;34681;49.188;-0.374;2022-09-20T07:42:55;102302.19;;;15.28;63.60
48862;BME280;34681;49.188;-0.374;2022-09-20T07:45:21;102301.34;;;15.27;63.38
48862;BME280;34681;49.188;-0.374;2022-09-20T07:47:46;102298.16;;;15.32;63.52
48862;BME280;34681;49.188;-0.374;2022-09-20T07:50:11;102298.44;;;15.38;63.36
48862;BME280;34681;49.188;-0.374;2022-09-20T07:52:37;102305.75;;;15.49;63.13
48862;BME280;34681;49.188;-0.374;2022-09-20T07:55:02;102296.47;;;15.50;63.31
48862;BME280;34681;49.188;-0.374;2022-09-20T07:57:28;102296.31;;;15.52;63.48
48862;BME280;34681;49.188;-0.374;2022-09-20T07:59:53;102300.88;;;15.62;63.34
48862;BME280;34681;49.188;-0.374;2022-09-20T08:02:18;102303.06;;;15.68;63.08
48862;BME280;34681;49.188;-0.374;2022-09-20T08:04:44;102304.66;;;15.71;63.14
48862;BME280;34681;49.188;-0.374;2022-09-20T08:07:09;102310.78;;;15.75;63.06
48862;BME280;34681;49.188;-0.374;2022-09-20T08:09:36;102306.72;;;15.79;62.71
48862;BME280;34681;49.188;-0.374;2022-09-20T08:12:02;102310.22;;;15.81;62.85
48862;BME280;34681;49.188;-0.374;2022-09-20T08:14:27;102310.34;;;15.79;62.89
48862;BME280;34681;49.188;-0.374;2022-09-20T08:16:53;102316.03;;;15.87;62.68
48862;BME280;34681;49.188;-0.374;2022-09-20T08:19:21;102312.13;;;15.90;62.95
48862;BME280;34681;49.188;-0.374;2022-09-20T08:21:48;102319.53;;;16.09;62.16
48862;BME280;34681;49.188;-0.374;2022-09-20T08:24:14;102326.22;;;16.06;62.37
48862;BME280;34681;49.188;-0.374;2022-09-20T08:26:40;102326.66;;;16.21;62.15
48862;BME280;34681;49.188;-0.374;2022-09-20T08:29:06;102323.16;;;16.38;61.70
48862;BME280;34681;49.188;-0.374;2022-09-20T08:31:33;102324.31;;;16.55;61.34
48862;BME280;34681;49.188;-0.374;2022-09-20T08:33:59;102328.81;;;16.56;61.27
48862;BME280;34681;49.188;-0.374;2022-09-20T08:36:30;102330.53;;;16.67;60.66
48862;BME280;34681;49.188;-0.374;2022-09-20T08:38:56;102335.47;;;16.63;61.09
48862;BME280;34681;49.188;-0.374;2022-09-20T08:43:54;102341.47;;;16.58;61.72
48862;BME280;34681;49.188;-0.374;2022-09-20T08:46:26;102342.91;;;16.63;61.46
48862;BME280;34681;49.188;-0.374;2022-09-20T08:48:54;102343.34;;;16.77;61.21
48862;BME280;34681;49.188;-0.374;2022-09-20T08:51:20;102339.19;;;17.10;60.84
48862;BME280;34681;49.188;-0.374;2022-09-20T08:53:50;102344.03;;;17.36;60.23
48862;BME280;34681;49.188;-0.374;2022-09-20T08:56:17;102349.31;;;17.57;60.38
48862;BME280;34681;49.188;-0.374;2022-09-20T08:58:43;102349.91;;;18.06;58.80
48862;BME280;34681;49.188;-0.374;2022-09-20T09:01:17;102348.50;;;18.37;58.86
48862;BME280;34681;49.188;-0.374;2022-09-20T09:03:44;102349.88;;;18.77;58.39
48862;BME280;34681;49.188;-0.374;2022-09-20T09:06:12;102348.25;;;19.18;57.33
48862;BME280;34681;49.188;-0.374;2022-09-20T09:08:39;102346.00;;;19.48;56.51
48862;BME280;34681;49.188;-0.374;2022-09-20T09:11:12;102351.03;;;19.86;55.37
48862;BME280;34681;49.188;-0.374;2022-09-20T09:16:28;102351.72;;;19.88;55.42
48862;BME280;34681;49.188;-0.374;2022-09-20T09:18:53;102347.91;;;19.89;55.56
48862;BME280;34681;49.188;-0.374;2022-09-20T09:21:23;102345.97;;;19.82;55.52
48862;BME280;34681;49.188;-0.374;2022-09-20T09:26:35;102352.84;;;19.61;56.34
48862;BME280;34681;49.188;-0.374;2022-09-20T09:29:17;102347.63;;;19.58;56.55
48862;BME280;34681;49.188;-0.374;2022-09-20T09:31:45;102354.84;;;19.51;56.10
48862;BME280;34681;49.188;-0.374;2022-09-20T09:36:48;102354.41;;;19.30;56.65
48862;BME280;34681;49.188;-0.374;2022-09-20T09:39:33;102354.81;;;19.43;56.52
48862;BME280;34681;49.188;-0.374;2022-09-20T09:42:23;102344.38;;;19.37;56.44
48862;BME280;34681;49.188;-0.374;2022-09-20T09:44:49;102353.84;;;19.26;56.84
48862;BME280;34681;49.188;-0.374;2022-09-20T09:47:25;102348.28;;;19.26;57.08
48862;BME280;34681;49.188;-0.374;2022-09-20T09:49:56;102350.03;;;19.27;57.27
48862;BME280;34681;49.188;-0.374;2022-09-20T09:52:23;102350.81;;;19.38;57.36
48862;BME280;34681;49.188;-0.374;2022-09-20T09:54:55;102352.75;;;19.45;57.31
48862;BME280;34681;49.188;-0.374;2022-09-20T10:00:16;102357.56;;;19.77;56.65
48862;BME280;34681;49.188;-0.374;2022-09-20T10:05:13;102349.53;;;20.16;55.60
48862;BME280;34681;49.188;-0.374;2022-09-20T10:13:31;102349.38;;;20.42;55.16
48862;BME280;34681;49.188;-0.374;2022-09-20T10:18:50;102352.00;;;20.68;55.07
48862;BME280;34681;49.188;-0.374;2022-09-20T10:29:52;102352.31;;;20.33;56.39
48862;BME280;34681;49.188;-0.374;2022-09-20T10:32:34;102354.53;;;19.97;57.56
48862;BME280;34681;49.188;-0.374;2022-09-20T10:38:16;102347.69;;;19.75;58.56
48862;BME280;34681;49.188;-0.374;2022-09-20T10:44:32;102338.59;;;19.56;59.70
48862;BME280;34681;49.188;-0.374;2022-09-20T10:47:18;102339.13;;;19.60;59.61
48862;BME280;34681;49.188;-0.374;2022-09-20T10:56:01;102338.31;;;19.42;60.61
48862;BME280;34681;49.188;-0.374;2022-09-20T11:01:32;102330.03;;;19.50;60.70
48862;BME280;34681;49.188;-0.374;2022-09-20T11:09:10;102331.13;;;19.57;60.40
48862;BME280;34681;49.188;-0.374;2022-09-20T11:12:15;102325.66;;;19.81;58.08
48862;BME280;34681;49.188;-0.374;2022-09-20T11:14:52;102326.03;;;19.86;58.68
48862;BME280;34681;49.188;-0.374;2022-09-20T11:20:05;102322.63;;;20.41;57.64
48862;BME280;34681;49.188;-0.374;2022-09-20T11:25:41;102318.13;;;20.73;55.24
48862;BME280;34681;49.188;-0.374;2022-09-20T11:33:33;102309.41;;;20.76;52.46
48862;BME280;34681;49.188;-0.374;2022-09-20T11:36:03;102312.19;;;20.76;52.73
48862;BME280;34681;49.188;-0.374;2022-09-20T11:38:59;102306.25;;;21.03;51.01
48862;BME280;34681;49.188;-0.374;2022-09-20T11:41:29;102311.59;;;21.21;50.71
48862;BME280;34681;49.188;-0.374;2022-09-20T11:44:00;102312.06;;;20.78;51.58
48862;BME280;34681;49.188;-0.374;2022-09-20T11:46:37;102313.81;;;20.62;51.69
48862;BME280;34681;49.188;-0.374;2022-09-20T11:49:26;102311.94;;;19.80;52.35
48862;BME280;34681;49.188;-0.374;2022-09-20T11:52:02;102308.50;;;19.78;53.04
48862;BME280;34681;49.188;-0.374;2022-09-20T11:57:26;102314.78;;;19.54;52.08
48862;BME280;34681;49.188;-0.374;2022-09-20T11:59:58;102308.78;;;19.67;51.16
48862;BME280;34681;49.188;-0.374;2022-09-20T12:02:31;102313.13;;;19.69;50.48
48862;BME280;34681;49.188;-0.374;2022-09-20T12:04:58;102311.84;;;20.14;48.79
48862;BME280;34681;49.188;-0.374;2022-09-20T12:14:57;102301.75;;;21.02;47.73
48862;BME280;34681;49.188;-0.374;2022-09-20T12:26:52;102303.72;;;20.53;49.06
48862;BME280;34681;49.188;-0.374;2022-09-20T12:29:03;102295.69;;;20.74;48.98
48862;BME280;34681;49.188;-0.374;2022-09-20T12:31:38;102297.53;;;21.07;48.24
48862;BME280;34681;49.188;-0.374;2022-09-20T12:39:33;102289.81;;;21.25;47.41
48862;BME280;34681;49.188;-0.374;2022-09-20T12:42:21;102291.97;;;21.07;47.77
48862;BME280;34681;49.188;-0.374;2022-09-20T12:47:23;102283.69;;;21.46;47.04
48862;BME280;34681;49.188;-0.374;2022-09-20T12:49:51;102282.22;;;21.58;47.26
48862;BME280;34681;49.188;-0.374;2022-09-20T12:58:17;102285.75;;;20.96;51.22
48862;BME280;34681;49.188;-0.374;2022-09-20T13:03:39;102288.75;;;20.70;50.68
48862;BME280;34681;49.188;-0.374;2022-09-20T13:14:02;102272.03;;;20.87;50.38
48862;BME280;34681;49.188;-0.374;2022-09-20T13:19:25;102265.97;;;20.75;48.06
48862;BME280;34681;49.188;-0.374;2022-09-20T13:24:51;102272.97;;;21.18;46.73
48862;BME280;34681;49.188;-0.374;2022-09-20T13:27:37;102267.34;;;21.26;47.19
48862;BME280;34681;49.188;-0.374;2022-09-20T13:32:41;102260.97;;;21.18;46.45
48862;BME280;34681;49.188;-0.374;2022-09-20T13:35:17;102269.69;;;21.15;46.24
48862;BME280;34681;49.188;-0.374;2022-09-20T13:37:53;102273.38;;;20.99;47.00
48862;BME280;34681;49.188;-0.374;2022-09-20T13:40:22;102263.63;;;21.11;46.10
48862;BME280;34681;49.188;-0.374;2022-09-20T13:42:49;102267.19;;;21.36;45.56
48862;BME280;34681;49.188;-0.374;2022-09-20T13:45:16;102272.09;;;21.18;43.47
48862;BME280;34681;49.188;-0.374;2022-09-20T13:47:47;102273.13;;;20.69;45.30
48862;BME280;34681;49.188;-0.374;2022-09-20T13:52:45;102267.47;;;21.02;45.39
48862;BME280;34681;49.188;-0.374;2022-09-20T13:55:33;102265.13;;;21.22;45.46
48862;BME280;34681;49.188;-0.374;2022-09-20T13:58:06;102270.00;;;21.36;45.00
48862;BME280;34681;49.188;-0.374;2022-09-20T14:00:35;102254.06;;;21.06;45.07
48862;BME280;34681;49.188;-0.374;2022-09-20T14:03:03;102255.19;;;20.72;46.14
48862;BME280;34681;49.188;-0.374;2022-09-20T14:05:29;102261.56;;;20.97;46.38
48862;BME280;34681;49.188;-0.374;2022-09-20T14:07:56;102257.66;;;21.22;45.64
48862;BME280;34681;49.188;-0.374;2022-09-20T14:10:37;102257.78;;;21.37;45.21
48862;BME280;34681;49.188;-0.374;2022-09-20T14:13:10;102262.22;;;21.07;45.57
48862;BME280;34681;49.188;-0.374;2022-09-20T14:15:42;102262.75;;;21.11;46.12
48862;BME280;34681;49.188;-0.374;2022-09-20T14:18:13;102259.63;;;21.06;46.65
48862;BME280;34681;49.188;-0.374;2022-09-20T14:20:41;102259.31;;;21.48;46.04
48862;BME280;34681;49.188;-0.374;2022-09-20T14:23:22;102258.53;;;21.62;46.63
48862;BME280;34681;49.188;-0.374;2022-09-20T14:26:20;102258.28;;;21.72;47.25
48862;BME280;34681;49.188;-0.374;2022-09-20T14:28:46;102261.09;;;21.24;48.35
48862;BME280;34681;49.188;-0.374;2022-09-20T14:31:22;102253.72;;;21.00;50.17
48862;BME280;34681;49.188;-0.374;2022-09-20T14:33:52;102248.59;;;20.65;50.78
48862;BME280;34681;49.188;-0.374;2022-09-20T14:36:24;102245.63;;;20.74;50.91
48862;BME280;34681;49.188;-0.374;2022-09-20T14:38:53;102237.66;;;20.71;51.33
48862;BME280;34681;49.188;-0.374;2022-09-20T14:41:40;102242.69;;;21.31;50.67
48862;BME280;34681;49.188;-0.374;2022-09-20T14:44:21;102248.94;;;21.25;49.90
48862;BME280;34681;49.188;-0.374;2022-09-20T14:46:47;102242.66;;;20.76;51.01
48862;BME280;34681;49.188;-0.374;2022-09-20T14:51:49;102243.22;;;20.06;50.41
48862;BME280;34681;49.188;-0.374;2022-09-20T14:54:27;102240.09;;;20.01;51.26
48862;BME280;34681;49.188;-0.374;2022-09-20T14:56:55;102243.72;;;20.42;50.48
48862;BME280;34681;49.188;-0.374;2022-09-20T14:59:26;102233.00;;;20.56;50.91
48862;BME280;34681;49.188;-0.374;2022-09-20T15:02:15;102245.00;;;20.48;52.02
48862;BME280;34681;49.188;-0.374;2022-09-20T15:04:50;102239.41;;;20.15;52.93
48862;BME280;34681;49.188;-0.374;2022-09-20T15:07:18;102232.47;;;20.03;52.17
48862;BME280;34681;49.188;-0.374;2022-09-20T15:09:44;102242.19;;;19.99;52.16
48862;BME280;34681;49.188;-0.374;2022-09-20T15:12:19;102249.31;;;20.02;52.67
48862;BME280;34681;49.188;-0.374;2022-09-20T15:14:46;102259.53;;;19.85;53.82
48862;BME280;34681;49.188;-0.374;2022-09-20T15:17:17;102245.81;;;19.83;54.26
48862;BME280;34681;49.188;-0.374;2022-09-20T15:19:43;102239.75;;;19.80;55.07
48862;BME280;34681;49.188;-0.374;2022-09-20T15:22:10;102241.66;;;19.79;55.75
48862;BME280;34681;49.188;-0.374;2022-09-20T15:24:36;102244.06;;;19.82;55.33
48862;BME280;34681;49.188;-0.374;2022-09-20T15:27:01;102243.81;;;19.51;56.38
48862;BME280;34681;49.188;-0.374;2022-09-20T15:29:28;102236.94;;;19.63;56.13
48862;BME280;34681;49.188;-0.374;2022-09-20T15:31:54;102245.16;;;19.39;56.27
48862;BME280;34681;49.188;-0.374;2022-09-20T15:34:19;102237.97;;;19.12;56.96
48862;BME280;34681;49.188;-0.374;2022-09-20T15:36:45;102238.09;;;19.11;56.70
48862;BME280;34681;49.188;-0.374;2022-09-20T15:39:10;102236.56;;;19.16;56.61
48862;BME280;34681;49.188;-0.374;2022-09-20T15:41:36;102251.22;;;19.34;56.14
48862;BME280;34681;49.188;-0.374;2022-09-20T15:44:06;102239.56;;;19.23;55.78
48862;BME280;34681;49.188;-0.374;2022-09-20T15:46:32;102228.63;;;19.21;56.31
48862;BME280;34681;49.188;-0.374;2022-09-20T15:48:59;102242.84;;;19.26;55.47
48862;BME280;34681;49.188;-0.374;2022-09-20T15:51:26;102245.56;;;19.10;56.17
48862;BME280;34681;49.188;-0.374;2022-09-20T15:53:58;102241.69;;;19.03;56.01
48862;BME280;34681;49.188;-0.374;2022-09-20T15:56:25;102242.25;;;19.06;56.28
48862;BME280;34681;49.188;-0.374;2022-09-20T15:59:02;102244.44;;;19.29;55.92
48862;BME280;34681;49.188;-0.374;2022-09-20T16:03:58;102242.41;;;18.97;55.82
48862;BME280;34681;49.188;-0.374;2022-09-20T16:06:23;102236.31;;;18.67;56.74
48862;BME280;34681;49.188;-0.374;2022-09-20T16:08:49;102248.38;;;18.84;56.38
48862;BME280;34681;49.188;-0.374;2022-09-20T16:11:17;102246.31;;;18.86;55.73
48862;BME280;34681;49.188;-0.374;2022-09-20T16:13:45;102231.81;;;19.00;56.16
48862;BME280;34681;49.188;-0.374;2022-09-20T16:16:11;102243.34;;;19.14;55.60
48862;BME280;34681;49.188;-0.374;2022-09-20T16:18:40;102242.34;;;18.89;56.41
48862;BME280;34681;49.188;-0.374;2022-09-20T16:21:24;102237.78;;;18.79;56.63
48862;BME280;34681;49.188;-0.374;2022-09-20T16:23:52;102239.47;;;18.72;56.51
48862;BME280;34681;49.188;-0.374;2022-09-20T16:26:19;102246.16;;;18.88;55.80
48862;BME280;34681;49.188;-0.374;2022-09-20T16:28:46;102246.53;;;18.67;56.41
48862;BME280;34681;49.188;-0.374;2022-09-20T16:36:43;102242.16;;;18.64;55.88
48862;BME280;34681;49.188;-0.374;2022-09-20T16:39:10;102247.09;;;18.52;55.90
48862;BME280;34681;49.188;-0.374;2022-09-20T16:41:36;102245.25;;;18.61;55.72
48862;BME280;34681;49.188;-0.374;2022-09-20T16:44:04;102254.59;;;18.60;55.73
48862;BME280;34681;49.188;-0.374;2022-09-20T16:46:30;102256.78;;;18.48;56.03
48862;BME280;34681;49.188;-0.374;2022-09-20T16:48:57;102259.00;;;18.45;55.93
48862;BME280;34681;49.188;-0.374;2022-09-20T16:51:29;102244.50;;;18.51;55.08
48862;BME280;34681;49.188;-0.374;2022-09-20T16:54:00;102254.28;;;18.37;55.22
48862;BME280;34681;49.188;-0.374;2022-09-20T16:56:28;102253.50;;;18.53;55.07
48862;BME280;34681;49.188;-0.374;2022-09-20T16:58:54;102255.63;;;18.59;55.10
48862;BME280;34681;49.188;-0.374;2022-09-20T17:01:20;102258.94;;;18.37;55.60
48862;BME280;34681;49.188;-0.374;2022-09-20T17:03:47;102251.88;;;18.42;55.48
48862;BME280;34681;49.188;-0.374;2022-09-20T17:06:14;102264.94;;;18.50;54.69
48862;BME280;34681;49.188;-0.374;2022-09-20T17:08:41;102258.72;;;18.30;54.87
48862;BME280;34681;49.188;-0.374;2022-09-20T17:11:11;102261.38;;;18.14;55.00
48862;BME280;34681;49.188;-0.374;2022-09-20T17:13:40;102260.81;;;17.92;55.21
48862;BME280;34681;49.188;-0.374;2022-09-20T17:16:09;102267.75;;;17.79;55.69
48862;BME280;34681;49.188;-0.374;2022-09-20T17:18:35;102265.47;;;17.74;56.24
48862;BME280;34681;49.188;-0.374;2022-09-20T17:21:07;102261.25;;;17.70;56.86
48862;BME280;34681;49.188;-0.374;2022-09-20T17:23:33;102262.97;;;17.81;56.67
48862;BME280;34681;49.188;-0.374;2022-09-20T17:26:03;102267.09;;;17.67;56.65
48862;BME280;34681;49.188;-0.374;2022-09-20T17:28:36;102269.50;;;17.52;56.52
48862;BME280;34681;49.188;-0.374;2022-09-20T17:31:03;102266.59;;;17.54;56.66
48862;BME280;34681;49.188;-0.374;2022-09-20T17:33:29;102279.97;;;17.58;56.88
48862;BME280;34681;49.188;-0.374;2022-09-20T17:35:55;102277.72;;;17.44;57.69
48862;BME280;34681;49.188;-0.374;2022-09-20T17:38:24;102270.09;;;17.56;57.57
48862;BME280;34681;49.188;-0.374;2022-09-20T17:40:57;102283.53;;;17.68;57.00
48862;BME280;34681;49.188;-0.374;2022-09-20T17:43:24;102274.97;;;17.72;56.55
48862;BME280;34681;49.188;-0.374;2022-09-20T17:45:51;102271.94;;;17.37;57.20
48862;BME280;34681;49.188;-0.374;2022-09-20T17:48:16;102278.81;;;17.33;57.35
48862;BME280;34681;49.188;-0.374;2022-09-20T17:50:53;102276.38;;;17.21;57.45
48862;BME280;34681;49.188;-0.374;2022-09-20T17:53:19;102280.66;;;17.15;57.68
48862;BME280;34681;49.188;-0.374;2022-09-20T17:55:54;102279.94;;;17.13;57.21
48862;BME280;34681;49.188;-0.374;2022-09-20T17:58:21;102276.66;;;17.27;56.54
48862;BME280;34681;49.188;-0.374;2022-09-20T18:00:46;102277.28;;;17.21;56.08
48862;BME280;34681;49.188;-0.374;2022-09-20T18:03:12;102282.84;;;17.11;55.63
48862;BME280;34681;49.188;-0.374;2022-09-20T18:05:38;102280.13;;;17.02;55.92
48862;BME280;34681;49.188;-0.374;2022-09-20T18:08:03;102285.09;;;16.98;56.22
48862;BME280;34681;49.188;-0.374;2022-09-20T18:10:29;102276.31;;;17.03;55.96